sensor_id;sensor_type;location;lat;lon;timestamp;pressure;altitude;pressure_sealevel;temperature
15680;BMP180;15488;48.114;11.532;2022-07-01T00:01:05;95243.00;;;29.80
15680;BMP180;15488;48.114;11.532;2022-07-01T00:03:34;95255.00;;;29.80
15680;BMP180;15488;48.114;11.532;2022-07-01T00:06:01;95261.00;;;29.80
15680;BMP180;15488;48.114;11.532;2022-07-01T00:08:29;95245.00;;;29.80
15680;BMP180;15488;48.114;11.532;2022-07-01T00:10:56;95220.00;;;29.80
15680;BMP180;15488;48.114;11.532;2022-07-01T00:13:24;95232.00;;;29.80
15680;BMP180;15488;48.114;11.532;2022-07-01T00:15:51;95236.00;;;29.80
15680;BMP180;15488;48.114;11.532;2022-07-01T00:18:19;95249.00;;;29.80
15680;BMP180;15488;48.114;11.532;2022-07-01T00:20:49;95270.00;;;29.80
15680;BMP180;15488;48.114;11.532;2022-07-01T00:23:16;95265.00;;;29.80
15680;BMP180;15488;48.114;11.532;2022-07-01T00:25:44;95263.00;;;29.80
15680;BMP180;15488;48.114;11.532;2022-07-01T00:28:12;95267.00;;;29.90
15680;BMP180;15488;48.114;11.532;2022-07-01T00:30:40;95269.00;;;29.80
15680;BMP180;15488;48.114;11.532;2022-07-01T00:33:07;95273.00;;;29.80
15680;BMP180;15488;48.114;11.532;2022-07-01T00:35:35;95283.00;;;29.80
15680;BMP180;15488;48.114;11.532;2022-07-01T00:38:04;95292.00;;;29.80
15680;BMP180;15488;48.114;11.532;2022-07-01T00:40:31;95291.00;;;29.90
15680;BMP180;15488;48.114;11.532;2022-07-01T00:42:59;95286.00;;;29.90
15680;BMP180;15488;48.114;11.532;2022-07-01T00:45:26;95281.00;;;29.80
15680;BMP180;15488;48.114;11.532;2022-07-01T00:47:54;95277.00;;;29.90
15680;BMP180;15488;48.114;11.532;2022-07-01T00:50:22;95265.00;;;29.80
15680;BMP180;15488;48.114;11.532;2022-07-01T00:52:50;95270.00;;;29.80
15680;BMP180;15488;48.114;11.532;2022-07-01T00:55:19;95284.00;;;29.80
15680;BMP180;15488;48.114;11.532;2022-07-01T00:57:47;95283.00;;;29.80
15680;BMP180;15488;48.114;11.532;2022-07-01T01:00:16;95295.00;;;29.80
15680;BMP180;15488;48.114;11.532;2022-07-01T01:02:45;95294.00;;;29.80
15680;BMP180;15488;48.114;11.532;2022-07-01T01:05:12;95302.00;;;29.80
15680;BMP180;15488;48.114;11.532;2022-07-01T01:07:39;95317.00;;;29.80
15680;BMP180;15488;48.114;11.532;2022-07-01T01:10:08;95327.00;;;29.80
15680;BMP180;15488;48.114;11.532;2022-07-01T01:12:37;95319.00;;;29.80
15680;BMP180;15488;48.114;11.532;2022-07-01T01:15:05;95316.00;;;29.80
15680;BMP180;15488;48.114;11.532;2022-07-01T01:17:33;95325.00;;;29.80
15680;BMP180;15488;48.114;11.532;2022-07-01T01:20:00;95326.00;;;29.80
15680;BMP180;15488;48.114;11.532;2022-07-01T01:22:29;95311.00;;;29.80
15680;BMP180;15488;48.114;11.532;2022-07-01T01:24:58;95312.00;;;29.80
15680;BMP180;15488;48.114;11.532;2022-07-01T01:27:25;95193.00;;;29.80
15680;BMP180;15488;48.114;11.532;2022-07-01T01:29:53;95319.00;;;29.80
15680;BMP180;15488;48.114;11.532;2022-07-01T01:32:20;95316.00;;;29.80
15680;BMP180;15488;48.114;11.532;2022-07-01T01:34:48;95322.00;;;29.80
15680;BMP180;15488;48.114;11.532;2022-07-01T01:37:15;95312.00;;;29.80
15680;BMP180;15488;48.114;11.532;2022-07-01T01:39:44;95308.00;;;29.80
15680;BMP180;15488;48.114;11.532;2022-07-01T01:42:12;95308.00;;;29.80
15680;BMP180;15488;48.114;11.532;2022-07-01T01:44:39;95306.00;;;29.80
15680;BMP180;15488;48.114;11.532;2022-07-01T01:47:07;95297.00;;;29.80
15680;BMP180;15488;48.114;11.532;2022-07-01T01:49:34;95293.00;;;29.80
15680;BMP180;15488;48.114;11.532;2022-07-01T01:52:02;95289.00;;;29.80
15680;BMP180;15488;48.114;11.532;2022-07-01T01:54:30;95286.00;;;29.80
15680;BMP180;15488;48.114;11.532;2022-07-01T01:56:59;95282.00;;;29.80
15680;BMP180;15488;48.114;11.532;2022-07-01T01:59:27;95279.00;;;29.80
15680;BMP180;15488;48.114;11.532;2022-07-01T02:01:54;95281.00;;;29.80
15680;BMP180;15488;48.114;11.532;2022-07-01T02:04:22;95289.00;;;29.80
15680;BMP180;15488;48.114;11.532;2022-07-01T02:06:50;95287.00;;;29.80
15680;BMP180;15488;48.114;11.532;2022-07-01T02:09:17;95291.00;;;29.80
15680;BMP180;15488;48.114;11.532;2022-07-01T02:11:45;95293.00;;;29.80
15680;BMP180;15488;48.114;11.532;2022-07-01T02:14:14;95297.00;;;29.70
15680;BMP180;15488;48.114;11.532;2022-07-01T02:16:41;95306.00;;;29.80
15680;BMP180;15488;48.114;11.532;2022-07-01T02:19:08;95309.00;;;29.80
15680;BMP180;15488;48.114;11.532;2022-07-01T02:21:36;95314.00;;;29.80
15680;BMP180;15488;48.114;11.532;2022-07-01T02:24:04;95322.00;;;29.80
15680;BMP180;15488;48.114;11.532;2022-07-01T02:26:31;95328.00;;;29.80
15680;BMP180;15488;48.114;11.532;2022-07-01T02:28:59;95333.00;;;29.80
15680;BMP180;15488;48.114;11.532;2022-07-01T02:31:27;95332.00;;;29.70
15680;BMP180;15488;48.114;11.532;2022-07-01T02:33:55;95335.00;;;29.70
15680;BMP180;15488;48.114;11.532;2022-07-01T02:36:22;95345.00;;;29.70
15680;BMP180;15488;48.114;11.532;2022-07-01T02:38:50;95340.00;;;29.70
15680;BMP180;15488;48.114;11.532;2022-07-01T02:41:17;95339.00;;;29.70
15680;BMP180;15488;48.114;11.532;2022-07-01T02:43:45;95348.00;;;29.70
15680;BMP180;15488;48.114;11.532;2022-07-01T02:46:12;95353.00;;;29.70
15680;BMP180;15488;48.114;11.532;2022-07-01T02:48:41;95355.00;;;29.70
15680;BMP180;15488;48.114;11.532;2022-07-01T02:51:08;95362.00;;;29.70
15680;BMP180;15488;48.114;11.532;2022-07-01T02:53:36;95365.00;;;29.70
15680;BMP180;15488;48.114;11.532;2022-07-01T02:56:03;95363.00;;;29.70
15680;BMP180;15488;48.114;11.532;2022-07-01T02:58:31;95354.00;;;29.70
15680;BMP180;15488;48.114;11.532;2022-07-01T03:00:58;95356.00;;;29.70
15680;BMP180;15488;48.114;11.532;2022-07-01T03:03:26;95345.00;;;29.70
15680;BMP180;15488;48.114;11.532;2022-07-01T03:05:55;95347.00;;;29.70
15680;BMP180;15488;48.114;11.532;2022-07-01T03:08:22;95351.00;;;29.70
15680;BMP180;15488;48.114;11.532;2022-07-01T03:10:49;95355.00;;;29.70
15680;BMP180;15488;48.114;11.532;2022-07-01T03:13:17;95359.00;;;29.70
15680;BMP180;15488;48.114;11.532;2022-07-01T03:15:45;95372.00;;;29.70
15680;BMP180;15488;48.114;11.532;2022-07-01T03:18:13;95376.00;;;29.70
15680;BMP180;15488;48.114;11.532;2022-07-01T03:20:41;95372.00;;;29.70
15680;BMP180;15488;48.114;11.532;2022-07-01T03:23:09;95377.00;;;29.70
15680;BMP180;15488;48.114;11.532;2022-07-01T03:25:37;95372.00;;;29.70
15680;BMP180;15488;48.114;11.532;2022-07-01T03:28:04;95377.00;;;29.70
15680;BMP180;15488;48.114;11.532;2022-07-01T03:30:33;95374.00;;;29.70
15680;BMP180;15488;48.114;11.532;2022-07-01T03:33:00;95369.00;;;29.70
15680;BMP180;15488;48.114;11.532;2022-07-01T03:35:28;95370.00;;;29.70
15680;BMP180;15488;48.114;11.532;2022-07-01T03:38:05;95370.00;;;29.70
15680;BMP180;15488;48.114;11.532;2022-07-01T03:40:35;95370.00;;;29.70
15680;BMP180;15488;48.114;11.532;2022-07-01T03:43:03;95370.00;;;29.70
15680;BMP180;15488;48.114;11.532;2022-07-01T03:45:31;95366.00;;;29.70
15680;BMP180;15488;48.114;11.532;2022-07-01T03:47:59;95370.00;;;29.70
15680;BMP180;15488;48.114;11.532;2022-07-01T03:50:28;95371.00;;;29.70
15680;BMP180;15488;48.114;11.532;2022-07-01T03:52:55;95374.00;;;29.70
15680;BMP180;15488;48.114;11.532;2022-07-01T03:55:42;95387.00;;;29.70
15680;BMP180;15488;48.114;11.532;2022-07-01T03:58:10;95398.00;;;29.70
15680;BMP180;15488;48.114;11.532;2022-07-01T04:00:38;95384.00;;;29.60
15680;BMP180;15488;48.114;11.532;2022-07-01T04:03:07;95396.00;;;29.70
15680;BMP180;15488;48.114;11.532;2022-07-01T04:05:35;95395.00;;;29.70
15680;BMP180;15488;48.114;11.532;2022-07-01T04:08:05;95396.00;;;29.60
15680;BMP180;15488;48.114;11.532;2022-07-01T04:10:34;95396.00;;;29.70
15680;BMP180;15488;48.114;11.532;2022-07-01T04:13:03;95399.00;;;29.60
15680;BMP180;15488;48.114;11.532;2022-07-01T04:15:31;95396.00;;;29.60
15680;BMP180;15488;48.114;11.532;2022-07-01T04:17:59;95383.00;;;29.70
15680;BMP180;15488;48.114;11.532;2022-07-01T04:20:26;95380.00;;;29.70
15680;BMP180;15488;48.114;11.532;2022-07-01T04:22:54;95373.00;;;29.70
15680;BMP180;15488;48.114;11.532;2022-07-01T04:25:21;95358.00;;;29.70
15680;BMP180;15488;48.114;11.532;2022-07-01T04:27:49;95348.00;;;29.70
15680;BMP180;15488;48.114;11.532;2022-07-01T04:30:18;95339.00;;;29.70
15680;BMP180;15488;48.114;11.532;2022-07-01T04:32:45;95339.00;;;29.70
15680;BMP180;15488;48.114;11.532;2022-07-01T04:35:12;95349.00;;;29.70
15680;BMP180;15488;48.114;11.532;2022-07-01T04:37:40;95359.00;;;29.70
15680;BMP180;15488;48.114;11.532;2022-07-01T04:40:08;95360.00;;;29.70
15680;BMP180;15488;48.114;11.532;2022-07-01T04:42:36;95374.00;;;29.70
15680;BMP180;15488;48.114;11.532;2022-07-01T04:45:02;95365.00;;;29.70
15680;BMP180;15488;48.114;11.532;2022-07-01T04:47:31;95364.00;;;29.70
15680;BMP180;15488;48.114;11.532;2022-07-01T04:49:59;95352.00;;;29.70
15680;BMP180;15488;48.114;11.532;2022-07-01T04:52:28;95339.00;;;29.70
15680;BMP180;15488;48.114;11.532;2022-07-01T04:54:55;95325.00;;;29.70
15680;BMP180;15488;48.114;11.532;2022-07-01T04:57:23;95310.00;;;29.70
15680;BMP180;15488;48.114;11.532;2022-07-01T04:59:50;95310.00;;;29.70
15680;BMP180;15488;48.114;11.532;2022-07-01T05:02:18;95305.00;;;29.70
15680;BMP180;15488;48.114;11.532;2022-07-01T05:04:46;95308.00;;;29.70
15680;BMP180;15488;48.114;11.532;2022-07-01T05:07:14;95314.00;;;29.70
15680;BMP180;15488;48.114;11.532;2022-07-01T05:09:55;95323.00;;;29.70
15680;BMP180;15488;48.114;11.532;2022-07-01T05:12:23;95338.00;;;29.70
15680;BMP180;15488;48.114;11.532;2022-07-01T05:14:50;95341.00;;;29.70
15680;BMP180;15488;48.114;11.532;2022-07-01T05:17:18;95350.00;;;29.70
15680;BMP180;15488;48.114;11.532;2022-07-01T05:19:46;95357.00;;;29.70
15680;BMP180;15488;48.114;11.532;2022-07-01T05:22:31;95354.00;;;29.70
15680;BMP180;15488;48.114;11.532;2022-07-01T05:24:59;95360.00;;;29.80
15680;BMP180;15488;48.114;11.532;2022-07-01T05:27:26;95348.00;;;29.80
15680;BMP180;15488;48.114;11.532;2022-07-01T05:29:54;95331.00;;;29.80
15680;BMP180;15488;48.114;11.532;2022-07-01T05:32:21;95322.00;;;29.80
15680;BMP180;15488;48.114;11.532;2022-07-01T05:34:50;95314.00;;;29.90
15680;BMP180;15488;48.114;11.532;2022-07-01T05:37:18;95326.00;;;29.90
15680;BMP180;15488;48.114;11.532;2022-07-01T05:39:47;95355.00;;;29.90
15680;BMP180;15488;48.114;11.532;2022-07-01T05:42:15;95369.00;;;29.90
15680;BMP180;15488;48.114;11.532;2022-07-01T05:44:42;95385.00;;;29.90
15680;BMP180;15488;48.114;11.532;2022-07-01T05:47:10;95401.00;;;29.90
15680;BMP180;15488;48.114;11.532;2022-07-01T05:49:37;95397.00;;;29.90
15680;BMP180;15488;48.114;11.532;2022-07-01T05:52:07;95408.00;;;29.90
15680;BMP180;15488;48.114;11.532;2022-07-01T05:54:34;95411.00;;;29.90
15680;BMP180;15488;48.114;11.532;2022-07-01T05:57:02;95413.00;;;30.00
15680;BMP180;15488;48.114;11.532;2022-07-01T05:59:30;95415.00;;;30.00
15680;BMP180;15488;48.114;11.532;2022-07-01T06:01:57;95415.00;;;30.00
15680;BMP180;15488;48.114;11.532;2022-07-01T06:04:24;95404.00;;;30.00
15680;BMP180;15488;48.114;11.532;2022-07-01T06:06:52;95407.00;;;30.00
15680;BMP180;15488;48.114;11.532;2022-07-01T06:09:21;95402.00;;;30.10
15680;BMP180;15488;48.114;11.532;2022-07-01T06:11:48;95406.00;;;30.20
15680;BMP180;15488;48.114;11.532;2022-07-01T06:14:16;95414.00;;;30.30
15680;BMP180;15488;48.114;11.532;2022-07-01T06:16:43;95430.00;;;30.40
15680;BMP180;15488;48.114;11.532;2022-07-01T06:19:11;95425.00;;;30.40
15680;BMP180;15488;48.114;11.532;2022-07-01T06:21:38;95431.00;;;30.50
15680;BMP180;15488;48.114;11.532;2022-07-01T06:24:06;95440.00;;;30.50
15680;BMP180;15488;48.114;11.532;2022-07-01T06:26:34;95452.00;;;30.50
15680;BMP180;15488;48.114;11.532;2022-07-01T06:29:02;95461.00;;;30.50
15680;BMP180;15488;48.114;11.532;2022-07-01T06:31:29;95462.00;;;30.50
15680;BMP180;15488;48.114;11.532;2022-07-01T06:33:59;95461.00;;;30.50
15680;BMP180;15488;48.114;11.532;2022-07-01T06:36:26;95463.00;;;30.50
15680;BMP180;15488;48.114;11.532;2022-07-01T06:38:54;95452.00;;;30.50
15680;BMP180;15488;48.114;11.532;2022-07-01T06:41:21;95460.00;;;30.50
15680;BMP180;15488;48.114;11.532;2022-07-01T06:43:57;95470.00;;;30.50
15680;BMP180;15488;48.114;11.532;2022-07-01T06:46:24;95468.00;;;30.40
15680;BMP180;15488;48.114;11.532;2022-07-01T06:48:52;95471.00;;;30.40
15680;BMP180;15488;48.114;11.532;2022-07-01T06:51:20;95454.00;;;30.40
15680;BMP180;15488;48.114;11.532;2022-07-01T06:53:48;95449.00;;;30.40
15680;BMP180;15488;48.114;11.532;2022-07-01T06:56:16;95458.00;;;30.40
15680;BMP180;15488;48.114;11.532;2022-07-01T06:58:44;95454.00;;;30.40
15680;BMP180;15488;48.114;11.532;2022-07-01T07:01:13;95460.00;;;30.40
15680;BMP180;15488;48.114;11.532;2022-07-01T07:03:40;95462.00;;;30.40
15680;BMP180;15488;48.114;11.532;2022-07-01T07:06:08;95451.00;;;30.40
15680;BMP180;15488;48.114;11.532;2022-07-01T07:08:35;95461.00;;;30.40
15680;BMP180;15488;48.114;11.532;2022-07-01T07:11:03;95468.00;;;30.40
15680;BMP180;15488;48.114;11.532;2022-07-01T07:13:31;95463.00;;;30.40
15680;BMP180;15488;48.114;11.532;2022-07-01T07:15:59;95461.00;;;30.40
15680;BMP180;15488;48.114;11.532;2022-07-01T07:18:27;95464.00;;;30.40
15680;BMP180;15488;48.114;11.532;2022-07-01T07:20:55;95459.00;;;30.40
15680;BMP180;15488;48.114;11.532;2022-07-01T07:23:22;95461.00;;;30.40
15680;BMP180;15488;48.114;11.532;2022-07-01T07:25:50;95465.00;;;30.40
15680;BMP180;15488;48.114;11.532;2022-07-01T07:28:17;95468.00;;;30.40
15680;BMP180;15488;48.114;11.532;2022-07-01T07:30:45;95474.00;;;30.40
15680;BMP180;15488;48.114;11.532;2022-07-01T07:33:12;95473.00;;;30.40
15680;BMP180;15488;48.114;11.532;2022-07-01T07:35:41;95469.00;;;30.40
15680;BMP180;15488;48.114;11.532;2022-07-01T07:38:09;95461.00;;;30.40
15680;BMP180;15488;48.114;11.532;2022-07-01T07:40:37;95463.00;;;30.40
15680;BMP180;15488;48.114;11.532;2022-07-01T07:43:05;95465.00;;;30.40
15680;BMP180;15488;48.114;11.532;2022-07-01T07:45:34;95467.00;;;30.40
15680;BMP180;15488;48.114;11.532;2022-07-01T07:48:02;95475.00;;;30.40
15680;BMP180;15488;48.114;11.532;2022-07-01T07:50:30;95482.00;;;30.40
15680;BMP180;15488;48.114;11.532;2022-07-01T07:52:59;95487.00;;;30.40
15680;BMP180;15488;48.114;11.532;2022-07-01T07:55:26;95487.00;;;30.40
15680;BMP180;15488;48.114;11.532;2022-07-01T07:57:54;95498.00;;;30.40
15680;BMP180;15488;48.114;11.532;2022-07-01T08:00:22;95501.00;;;30.40
15680;BMP180;15488;48.114;11.532;2022-07-01T08:02:49;95514.00;;;30.40
15680;BMP180;15488;48.114;11.532;2022-07-01T08:05:17;95521.00;;;30.40
15680;BMP180;15488;48.114;11.532;2022-07-01T08:07:44;95529.00;;;30.40
15680;BMP180;15488;48.114;11.532;2022-07-01T08:10:13;95541.00;;;30.40
15680;BMP180;15488;48.114;11.532;2022-07-01T08:12:41;95563.00;;;30.40
15680;BMP180;15488;48.114;11.532;2022-07-01T08:15:09;95573.00;;;30.40
15680;BMP180;15488;48.114;11.532;2022-07-01T08:17:37;95574.00;;;30.30
15680;BMP180;15488;48.114;11.532;2022-07-01T08:20:05;95583.00;;;30.30
15680;BMP180;15488;48.114;11.532;2022-07-01T08:22:33;95605.00;;;30.30
15680;BMP180;15488;48.114;11.532;2022-07-01T08:25:05;95613.00;;;30.30
15680;BMP180;15488;48.114;11.532;2022-07-01T08:27:33;95636.00;;;30.30
15680;BMP180;15488;48.114;11.532;2022-07-01T08:30:01;95632.00;;;30.30
15680;BMP180;15488;48.114;11.532;2022-07-01T08:32:28;95636.00;;;30.30
15680;BMP180;15488;48.114;11.532;2022-07-01T08:34:56;95630.00;;;30.30
15680;BMP180;15488;48.114;11.532;2022-07-01T08:37:24;95636.00;;;30.20
15680;BMP180;15488;48.114;11.532;2022-07-01T08:39:51;95638.00;;;30.30
15680;BMP180;15488;48.114;11.532;2022-07-01T08:42:19;95643.00;;;30.20
15680;BMP180;15488;48.114;11.532;2022-07-01T08:44:48;95647.00;;;30.20
15680;BMP180;15488;48.114;11.532;2022-07-01T08:47:15;95656.00;;;30.20
15680;BMP180;15488;48.114;11.532;2022-07-01T08:49:43;95656.00;;;30.20
15680;BMP180;15488;48.114;11.532;2022-07-01T08:52:11;95655.00;;;30.20
15680;BMP180;15488;48.114;11.532;2022-07-01T08:54:38;95651.00;;;30.20
15680;BMP180;15488;48.114;11.532;2022-07-01T08:57:07;95641.00;;;30.20
15680;BMP180;15488;48.114;11.532;2022-07-01T08:59:35;95647.00;;;30.20
15680;BMP180;15488;48.114;11.532;2022-07-01T09:02:04;95644.00;;;30.20
15680;BMP180;15488;48.114;11.532;2022-07-01T09:04:33;95641.00;;;30.20
15680;BMP180;15488;48.114;11.532;2022-07-01T09:07:05;95648.00;;;30.20
15680;BMP180;15488;48.114;11.532;2022-07-01T09:09:35;95648.00;;;30.20
15680;BMP180;15488;48.114;11.532;2022-07-01T09:12:03;95653.00;;;30.20
15680;BMP180;15488;48.114;11.532;2022-07-01T09:14:32;95651.00;;;30.10
15680;BMP180;15488;48.114;11.532;2022-07-01T09:17:03;95649.00;;;30.10
15680;BMP180;15488;48.114;11.532;2022-07-01T09:19:34;95660.00;;;30.10
15680;BMP180;15488;48.114;11.532;2022-07-01T09:22:03;95605.00;;;30.10
15680;BMP180;15488;48.114;11.532;2022-07-01T09:24:33;95650.00;;;30.10
15680;BMP180;15488;48.114;11.532;2022-07-01T09:27:04;95656.00;;;30.10
15680;BMP180;15488;48.114;11.532;2022-07-01T09:29:37;95653.00;;;29.90
15680;BMP180;15488;48.114;11.532;2022-07-01T09:32:07;95662.00;;;30.10
15680;BMP180;15488;48.114;11.532;2022-07-01T09:34:43;95657.00;;;30.10
15680;BMP180;15488;48.114;11.532;2022-07-01T09:37:12;95656.00;;;30.10
15680;BMP180;15488;48.114;11.532;2022-07-01T09:39:44;95661.00;;;30.10
15680;BMP180;15488;48.114;11.532;2022-07-01T09:42:12;95673.00;;;30.10
15680;BMP180;15488;48.114;11.532;2022-07-01T09:44:52;95673.00;;;30.10
15680;BMP180;15488;48.114;11.532;2022-07-01T09:47:23;95660.00;;;30.00
15680;BMP180;15488;48.114;11.532;2022-07-01T09:49:51;95671.00;;;30.00
15680;BMP180;15488;48.114;11.532;2022-07-01T09:52:20;95665.00;;;30.00
15680;BMP180;15488;48.114;11.532;2022-07-01T09:54:48;95668.00;;;30.00
15680;BMP180;15488;48.114;11.532;2022-07-01T09:57:17;95671.00;;;30.00
15680;BMP180;15488;48.114;11.532;2022-07-01T09:59:44;95672.00;;;30.00
15680;BMP180;15488;48.114;11.532;2022-07-01T10:02:12;95684.00;;;30.00
15680;BMP180;15488;48.114;11.532;2022-07-01T10:04:47;95686.00;;;30.00
15680;BMP180;15488;48.114;11.532;2022-07-01T10:07:26;95686.00;;;30.00
15680;BMP180;15488;48.114;11.532;2022-07-01T10:10:06;95689.00;;;30.00
15680;BMP180;15488;48.114;11.532;2022-07-01T10:12:38;95697.00;;;30.00
15680;BMP180;15488;48.114;11.532;2022-07-01T10:15:09;95704.00;;;30.00
15680;BMP180;15488;48.114;11.532;2022-07-01T10:17:41;95703.00;;;30.00
15680;BMP180;15488;48.114;11.532;2022-07-01T10:20:12;95709.00;;;30.00
15680;BMP180;15488;48.114;11.532;2022-07-01T10:22:40;95699.00;;;30.00
15680;BMP180;15488;48.114;11.532;2022-07-01T10:25:32;95709.00;;;29.90
15680;BMP180;15488;48.114;11.532;2022-07-01T10:28:19;95711.00;;;30.10
15680;BMP180;15488;48.114;11.532;2022-07-01T10:30:50;95719.00;;;30.00
15680;BMP180;15488;48.114;11.532;2022-07-01T10:33:32;95726.00;;;30.00
15680;BMP180;15488;48.114;11.532;2022-07-01T10:36:14;95726.00;;;30.00
15680;BMP180;15488;48.114;11.532;2022-07-01T10:39:08;95726.00;;;30.10
15680;BMP180;15488;48.114;11.532;2022-07-01T10:41:38;95729.00;;;30.00
15680;BMP180;15488;48.114;11.532;2022-07-01T10:44:07;95734.00;;;30.00
15680;BMP180;15488;48.114;11.532;2022-07-01T10:46:38;95729.00;;;30.00
15680;BMP180;15488;48.114;11.532;2022-07-01T10:49:07;95720.00;;;30.00
15680;BMP180;15488;48.114;11.532;2022-07-01T10:51:50;95717.00;;;30.00
15680;BMP180;15488;48.114;11.532;2022-07-01T10:54:46;95718.00;;;30.10
15680;BMP180;15488;48.114;11.532;2022-07-01T10:57:30;95728.00;;;30.10
15680;BMP180;15488;48.114;11.532;2022-07-01T11:00:25;95727.00;;;30.10
15680;BMP180;15488;48.114;11.532;2022-07-01T11:03:10;95728.00;;;30.00
15680;BMP180;15488;48.114;11.532;2022-07-01T11:05:38;95723.00;;;30.00
15680;BMP180;15488;48.114;11.532;2022-07-01T11:08:08;95726.00;;;30.00
15680;BMP180;15488;48.114;11.532;2022-07-01T11:10:36;95733.00;;;30.00
15680;BMP180;15488;48.114;11.532;2022-07-01T11:13:03;95733.00;;;30.00
15680;BMP180;15488;48.114;11.532;2022-07-01T11:15:31;95733.00;;;30.00
15680;BMP180;15488;48.114;11.532;2022-07-01T11:17:59;95733.00;;;29.90
15680;BMP180;15488;48.114;11.532;2022-07-01T11:20:30;95736.00;;;29.90
15680;BMP180;15488;48.114;11.532;2022-07-01T11:22:58;95731.00;;;29.90
15680;BMP180;15488;48.114;11.532;2022-07-01T11:25:29;95734.00;;;29.90
15680;BMP180;15488;48.114;11.532;2022-07-01T11:27:57;95741.00;;;29.90
15680;BMP180;15488;48.114;11.532;2022-07-01T11:30:25;95742.00;;;29.90
15680;BMP180;15488;48.114;11.532;2022-07-01T11:32:54;95746.00;;;29.90
15680;BMP180;15488;48.114;11.532;2022-07-01T11:35:23;95742.00;;;29.90
15680;BMP180;15488;48.114;11.532;2022-07-01T11:38:25;95746.00;;;29.90
15680;BMP180;15488;48.114;11.532;2022-07-01T11:41:20;95752.00;;;29.90
15680;BMP180;15488;48.114;11.532;2022-07-01T11:43:48;95759.00;;;29.90
15680;BMP180;15488;48.114;11.532;2022-07-01T11:46:17;95746.00;;;29.90
15680;BMP180;15488;48.114;11.532;2022-07-01T11:48:47;95727.00;;;29.90
15680;BMP180;15488;48.114;11.532;2022-07-01T11:51:18;95741.00;;;29.90
15680;BMP180;15488;48.114;11.532;2022-07-01T11:53:47;95748.00;;;29.90
15680;BMP180;15488;48.114;11.532;2022-07-01T11:56:18;95757.00;;;29.90
15680;BMP180;15488;48.114;11.532;2022-07-01T11:58:56;95771.00;;;29.90
15680;BMP180;15488;48.114;11.532;2022-07-01T12:01:26;95768.00;;;29.90
15680;BMP180;15488;48.114;11.532;2022-07-01T12:03:55;95767.00;;;29.90
15680;BMP180;15488;48.114;11.532;2022-07-01T12:06:23;95754.00;;;29.90
15680;BMP180;15488;48.114;11.532;2022-07-01T12:08:51;95745.00;;;29.90
15680;BMP180;15488;48.114;11.532;2022-07-01T12:11:21;95746.00;;;29.90
15680;BMP180;15488;48.114;11.532;2022-07-01T12:13:50;95747.00;;;29.90
15680;BMP180;15488;48.114;11.532;2022-07-01T12:16:18;95750.00;;;30.00
15680;BMP180;15488;48.114;11.532;2022-07-01T12:18:57;95753.00;;;30.00
15680;BMP180;15488;48.114;11.532;2022-07-01T12:21:27;95760.00;;;30.00
15680;BMP180;15488;48.114;11.532;2022-07-01T12:24:09;95768.00;;;30.00
15680;BMP180;15488;48.114;11.532;2022-07-01T12:26:48;95779.00;;;30.00
15680;BMP180;15488;48.114;11.532;2022-07-01T12:29:16;95765.00;;;29.90
15680;BMP180;15488;48.114;11.532;2022-07-01T12:31:53;95767.00;;;30.00
15680;BMP180;15488;48.114;11.532;2022-07-01T12:34:46;95768.00;;;30.10
15680;BMP180;15488;48.114;11.532;2022-07-01T12:37:16;95777.00;;;30.00
15680;BMP180;15488;48.114;11.532;2022-07-01T12:39:48;95787.00;;;30.00
15680;BMP180;15488;48.114;11.532;2022-07-01T12:42:28;95791.00;;;30.00
15680;BMP180;15488;48.114;11.532;2022-07-01T12:44:58;95819.00;;;29.90
15680;BMP180;15488;48.114;11.532;2022-07-01T12:47:26;95838.00;;;29.90
15680;BMP180;15488;48.114;11.532;2022-07-01T12:50:11;95842.00;;;30.00
15680;BMP180;15488;48.114;11.532;2022-07-01T12:52:40;95825.00;;;29.90
15680;BMP180;15488;48.114;11.532;2022-07-01T12:55:15;95832.00;;;29.90
15680;BMP180;15488;48.114;11.532;2022-07-01T12:57:46;95844.00;;;29.90
15680;BMP180;15488;48.114;11.532;2022-07-01T13:00:15;95836.00;;;29.90
15680;BMP180;15488;48.114;11.532;2022-07-01T13:02:43;95834.00;;;29.80
15680;BMP180;15488;48.114;11.532;2022-07-01T13:05:11;95821.00;;;29.80
15680;BMP180;15488;48.114;11.532;2022-07-01T13:07:39;95831.00;;;29.80
15680;BMP180;15488;48.114;11.532;2022-07-01T13:10:07;95804.00;;;29.80
15680;BMP180;15488;48.114;11.532;2022-07-01T13:12:34;95786.00;;;29.80
15680;BMP180;15488;48.114;11.532;2022-07-01T13:15:04;95779.00;;;29.80
15680;BMP180;15488;48.114;11.532;2022-07-01T13:17:32;95777.00;;;29.80
15680;BMP180;15488;48.114;11.532;2022-07-01T13:19:59;95760.00;;;29.80
15680;BMP180;15488;48.114;11.532;2022-07-01T13:22:26;95775.00;;;29.80
15680;BMP180;15488;48.114;11.532;2022-07-01T13:24:54;95803.00;;;29.80
15680;BMP180;15488;48.114;11.532;2022-07-01T13:27:21;95806.00;;;29.80
15680;BMP180;15488;48.114;11.532;2022-07-01T13:29:49;95789.00;;;29.80
15680;BMP180;15488;48.114;11.532;2022-07-01T13:32:18;95772.00;;;29.80
15680;BMP180;15488;48.114;11.532;2022-07-01T13:34:46;95764.00;;;29.80
15680;BMP180;15488;48.114;11.532;2022-07-01T13:37:13;95777.00;;;29.80
15680;BMP180;15488;48.114;11.532;2022-07-01T13:39:41;95785.00;;;29.80
15680;BMP180;15488;48.114;11.532;2022-07-01T13:42:08;95798.00;;;29.70
15680;BMP180;15488;48.114;11.532;2022-07-01T13:44:36;95801.00;;;29.80
15680;BMP180;15488;48.114;11.532;2022-07-01T13:47:04;95804.00;;;29.70
15680;BMP180;15488;48.114;11.532;2022-07-01T13:49:36;95806.00;;;29.70
15680;BMP180;15488;48.114;11.532;2022-07-01T13:52:04;95808.00;;;29.70
15680;BMP180;15488;48.114;11.532;2022-07-01T13:54:32;95823.00;;;29.70
15680;BMP180;15488;48.114;11.532;2022-07-01T13:56:59;95838.00;;;29.70
15680;BMP180;15488;48.114;11.532;2022-07-01T13:59:27;95852.00;;;29.70
15680;BMP180;15488;48.114;11.532;2022-07-01T14:01:55;95853.00;;;29.70
15680;BMP180;15488;48.114;11.532;2022-07-01T14:04:22;95836.00;;;29.70
15680;BMP180;15488;48.114;11.532;2022-07-01T14:06:51;95843.00;;;29.70
15680;BMP180;15488;48.114;11.532;2022-07-01T14:09:18;95857.00;;;29.70